createdAt,value
2022-08-23T00:01:24.318Z,4.10
2022-08-23T00:03:53.718Z,3.33
2022-08-23T00:06:22.061Z,3.90
2022-08-23T00:08:51.301Z,3.67
2022-08-23T00:11:28.159Z,3.67
2022-08-23T00:14:00.327Z,3.85
2022-08-23T00:16:28.791Z,3.80
2022-08-23T00:18:56.825Z,4.13
2022-08-23T00:21:24.954Z,4.53
2022-08-23T00:23:52.738Z,3.75
2022-08-23T00:26:20.789Z,3.55
2022-08-23T00:28:49.262Z,4.00
2022-08-23T00:31:18.560Z,3.83
2022-08-23T00:33:46.413Z,4.13
2022-08-23T00:36:14.445Z,3.80
2022-08-23T00:38:42.209Z,3.88
2022-08-23T00:41:10.526Z,4.10
2022-08-23T00:43:59.184Z,3.72
2022-08-23T00:47:00.469Z,4.25
2022-08-23T00:49:29.473Z,3.60
2022-08-23T00:52:02.231Z,4.40
2022-08-23T00:54:32.435Z,4.43
2022-08-23T00:57:03.652Z,4.22
2022-08-23T00:59:31.398Z,3.80
2022-08-23T01:02:01.119Z,4.25
2022-08-23T01:04:33.770Z,4.05
2022-08-23T01:07:08.610Z,3.83
2022-08-23T01:09:39.229Z,4.28
2022-08-23T01:12:09.219Z,3.70
2022-08-23T01:14:40.823Z,4.40
2022-08-23T01:17:14.607Z,4.25
2022-08-23T01:19:48.411Z,4.18
2022-08-23T01:22:22.669Z,4.25
2022-08-23T01:25:06.811Z,4.57
2022-08-23T01:27:36.853Z,3.75
2022-08-23T01:30:05.897Z,4.25
2022-08-23T01:32:37.100Z,3.80
2022-08-23T01:35:06.505Z,4.00
2022-08-23T01:37:34.986Z,4.30
2022-08-23T01:40:05.606Z,4.40
2022-08-23T01:42:33.377Z,3.60
2022-08-23T01:45:01.320Z,3.72
2022-08-23T01:47:29.450Z,3.75
2022-08-23T01:49:57.257Z,4.07
2022-08-23T01:52:24.963Z,4.47
2022-08-23T01:54:52.663Z,4.70
2022-08-23T01:57:21.904Z,4.10
2022-08-23T01:59:51.497Z,4.10
2022-08-23T02:02:19.757Z,4.45
2022-08-23T02:04:47.495Z,4.15
2022-08-23T02:07:15.187Z,3.95
2022-08-23T02:09:43.408Z,4.00
2022-08-23T02:12:11.595Z,4.20
2022-08-23T02:14:42.083Z,4.25
2022-08-23T02:17:11.486Z,3.90
2022-08-23T02:19:40.320Z,3.92
2022-08-23T02:22:09.405Z,4.20
2022-08-23T02:24:41.479Z,4.32
2022-08-23T02:27:09.328Z,4.05
2022-08-23T02:29:39.414Z,3.78
2022-08-23T02:32:09.974Z,3.95
2022-08-23T02:34:38.249Z,4.57
2022-08-23T02:37:06.852Z,4.15
2022-08-23T02:39:34.706Z,4.10
2022-08-23T02:42:03.240Z,4.30
2022-08-23T02:44:31.511Z,3.95
2022-08-23T02:47:00.126Z,3.83
2022-08-23T02:49:29.588Z,4.40
2022-08-23T02:51:57.699Z,3.90
2022-08-23T02:54:25.553Z,4.45
2022-08-23T02:56:54.382Z,4.05
2022-08-23T02:59:22.285Z,4.15
2022-08-23T03:01:50.122Z,4.65
2022-08-23T03:04:17.961Z,4.30
2022-08-23T03:06:47.298Z,4.30
2022-08-23T03:09:15.161Z,3.97
2022-08-23T03:11:46.293Z,4.38
2022-08-23T03:14:14.392Z,3.90
2022-08-23T03:16:42.497Z,4.28
2022-08-23T03:19:10.342Z,4.50
2022-08-23T03:21:38.413Z,4.55
2022-08-23T03:24:10.403Z,4.40
2022-08-23T03:26:38.353Z,4.50
2022-08-23T03:29:06.334Z,4.40
2022-08-23T03:31:34.159Z,4.72
2022-08-23T03:34:02.011Z,4.30
2022-08-23T03:36:29.768Z,4.60
2022-08-23T03:38:57.441Z,4.72
2022-08-23T03:41:27.160Z,4.25
2022-08-23T03:43:54.981Z,5.10
2022-08-23T03:46:25.358Z,4.68
2022-08-23T03:48:55.387Z,4.57
2022-08-23T03:51:24.874Z,4.57
2022-08-23T03:53:53.380Z,4.20
2022-08-23T03:56:27.582Z,4.60
2022-08-23T03:58:55.919Z,4.70
2022-08-23T04:01:28.357Z,4.43
2022-08-23T04:03:59.269Z,4.88
2022-08-23T04:06:27.769Z,4.72
2022-08-23T04:08:56.226Z,5.18
2022-08-23T04:11:25.501Z,5.20
2022-08-23T04:13:55.026Z,4.68
2022-08-23T04:16:22.916Z,4.72
2022-08-23T04:18:50.730Z,4.80
2022-08-23T04:21:22.423Z,4.75
2022-08-23T04:23:50.608Z,4.53
2022-08-23T04:26:18.349Z,4.43
2022-08-23T04:28:46.056Z,4.68
2022-08-23T04:31:15.428Z,4.20
2022-08-23T04:33:43.140Z,4.68
2022-08-23T04:36:10.768Z,4.88
2022-08-23T04:38:38.812Z,4.20
2022-08-23T04:41:24.424Z,4.40
2022-08-23T04:43:52.685Z,4.35
2022-08-23T04:46:21.805Z,4.65
2022-08-23T04:48:49.905Z,4.70
2022-08-23T04:51:17.650Z,4.65
2022-08-23T04:53:45.428Z,4.50
2022-08-23T04:56:13.212Z,4.78
2022-08-23T04:58:41.727Z,4.38
2022-08-23T05:01:10.850Z,4.57
2022-08-23T05:03:41.048Z,4.50
2022-08-23T05:06:09.633Z,4.53
2022-08-23T05:08:38.070Z,4.60
2022-08-23T05:11:08.524Z,4.20
2022-08-23T05:13:38.096Z,4.97
2022-08-23T05:16:07.307Z,5.03
2022-08-23T05:18:35.636Z,4.82
2022-08-23T05:21:05.142Z,4.75
2022-08-23T05:23:33.239Z,4.50
2022-08-23T05:26:01.990Z,5.25
2022-08-23T05:28:32.851Z,4.60
2022-08-23T05:31:03.348Z,4.45
2022-08-23T05:33:32.863Z,4.30
2022-08-23T05:36:01.960Z,4.10
2022-08-23T05:38:31.389Z,4.30
2022-08-23T05:41:02.085Z,4.50
2022-08-23T05:43:33.604Z,4.47
2022-08-23T05:46:03.846Z,4.10
2022-08-23T05:48:32.147Z,4.38
2022-08-23T05:51:10.240Z,4.13
2022-08-23T05:53:41.428Z,4.20
2022-08-23T05:56:13.982Z,4.10
2022-08-23T05:58:42.017Z,4.55
2022-08-23T06:01:12.369Z,4.00
2022-08-23T06:03:40.485Z,3.95
2022-08-23T06:06:08.769Z,4.07
2022-08-23T06:08:38.520Z,3.60
2022-08-23T06:11:10.129Z,4.53
2022-08-23T06:13:41.318Z,4.07
2022-08-23T06:16:14.674Z,4.25
2022-08-23T06:18:44.430Z,4.50
2022-08-23T06:21:14.570Z,4.30
2022-08-23T06:23:43.352Z,3.55
2022-08-23T06:26:14.501Z,3.58
2022-08-23T06:28:51.161Z,3.08
2022-08-23T06:31:42.108Z,3.25
2022-08-23T06:34:18.127Z,2.78
2022-08-23T06:36:46.257Z,3.03
2022-08-23T06:39:15.556Z,2.65
2022-08-23T06:41:44.656Z,2.85
2022-08-23T06:44:12.934Z,3.17
2022-08-23T06:46:40.724Z,3.17
2022-08-23T06:49:09.650Z,2.95
2022-08-23T06:51:39.790Z,3.00
2022-08-23T06:54:12.397Z,2.63
2022-08-23T06:56:42.455Z,2.90
2022-08-23T06:59:12.201Z,2.55
2022-08-23T07:01:46.221Z,2.80
2022-08-23T07:04:17.135Z,3.17
2022-08-23T07:06:44.935Z,3.15
2022-08-23T07:09:14.277Z,2.67
2022-08-23T07:11:42.818Z,2.83
2022-08-23T07:14:14.979Z,2.60
2022-08-23T07:19:11.335Z,2.90
2022-08-23T07:21:39.646Z,2.80
2022-08-23T07:24:08.364Z,2.85
2022-08-23T07:26:37.239Z,2.80
2022-08-23T07:29:05.539Z,2.85
2022-08-23T07:31:39.185Z,2.70
2022-08-23T07:34:07.629Z,2.60
2022-08-23T07:36:37.048Z,2.55
2022-08-23T07:39:06.265Z,2.80
2022-08-23T07:41:35.682Z,3.15
2022-08-23T07:44:04.752Z,2.90
2022-08-23T07:46:34.766Z,2.97
2022-08-23T07:49:04.368Z,2.75
2022-08-23T07:51:34.354Z,3.25
2022-08-23T07:54:03.160Z,2.67
2022-08-23T07:56:30.923Z,3.10
2022-08-23T07:58:58.832Z,2.83
2022-08-23T08:01:28.383Z,3.33
2022-08-23T08:04:00.048Z,3.10
2022-08-23T08:06:30.040Z,3.15
2022-08-23T08:08:58.797Z,3.47
2022-08-23T08:11:34.299Z,3.13
2022-08-23T08:14:06.111Z,3.15
2022-08-23T08:16:37.372Z,3.60
2022-08-23T08:19:08.067Z,3.20
2022-08-23T08:21:39.716Z,3.10
2022-08-23T08:24:13.496Z,3.80
2022-08-23T08:26:42.141Z,3.50
2022-08-23T08:29:12.220Z,2.92
2022-08-23T08:31:40.816Z,3.22
2022-08-23T08:34:10.254Z,3.17
2022-08-23T08:36:40.289Z,3.35
2022-08-23T08:39:10.973Z,3.40
2022-08-23T08:41:54.123Z,3.40
2022-08-23T08:44:38.184Z,2.80
2022-08-23T08:47:10.792Z,2.70
2022-08-23T08:49:50.401Z,3.20
2022-08-23T08:52:23.472Z,3.35
2022-08-23T08:54:57.533Z,3.50
2022-08-23T08:57:27.872Z,3.10
2022-08-23T09:00:00.856Z,3.10
2022-08-23T09:02:33.663Z,2.35
2022-08-23T09:05:08.404Z,2.63
2022-08-23T09:07:50.114Z,2.60
2022-08-23T09:10:34.891Z,2.50
2022-08-23T09:13:21.038Z,1.98
2022-08-23T09:16:00.158Z,2.42
2022-08-23T09:18:35.523Z,2.47
2022-08-23T09:21:08.637Z,2.42
2022-08-23T09:23:41.523Z,2.22
2022-08-23T09:26:22.134Z,2.40
2022-08-23T09:28:52.803Z,2.55
2022-08-23T09:31:41.451Z,2.50
2022-08-23T09:34:10.485Z,2.40
2022-08-23T09:36:40.147Z,2.13
2022-08-23T09:39:10.964Z,2.47
2022-08-23T09:41:43.637Z,2.53
2022-08-23T09:44:16.375Z,2.70
2022-08-23T09:46:44.813Z,2.50
2022-08-23T09:49:26.092Z,2.60
2022-08-23T09:51:57.504Z,2.83
2022-08-23T09:54:31.257Z,2.70
2022-08-23T09:57:05.530Z,2.55
2022-08-23T09:59:40.223Z,2.70
2022-08-23T10:02:16.012Z,2.63
2022-08-23T10:04:47.173Z,2.50
2022-08-23T10:07:28.475Z,2.47
2022-08-23T10:10:15.443Z,2.70
2022-08-23T10:12:43.422Z,2.25
2022-08-23T10:16:22.469Z,2.55
2022-08-23T10:19:34.170Z,2.83
2022-08-23T10:29:09.599Z,2.50
2022-08-23T10:35:30.204Z,2.63
2022-08-23T10:38:15.323Z,2.35
2022-08-23T10:40:52.150Z,2.85
2022-08-23T10:43:30.751Z,2.60
2022-08-23T10:46:02.823Z,2.22
2022-08-23T10:48:35.544Z,2.45
2022-08-23T10:51:10.379Z,2.95
2022-08-23T10:53:46.210Z,2.53
2022-08-23T10:56:19.257Z,2.65
2022-08-23T10:58:53.215Z,2.55
2022-08-23T11:01:26.570Z,2.45
2022-08-23T11:04:03.191Z,2.45
2022-08-23T11:06:53.532Z,2.90
2022-08-23T11:09:51.125Z,2.45
2022-08-23T11:12:28.759Z,2.80
2022-08-23T11:15:20.426Z,2.70
2022-08-23T11:17:59.892Z,3.00
2022-08-23T11:20:59.586Z,2.92
2022-08-23T11:23:42.132Z,2.63
2022-08-23T11:26:13.491Z,2.63
2022-08-23T11:28:43.642Z,2.38
2022-08-23T11:31:24.881Z,2.67
2022-08-23T11:34:01.073Z,2.85
2022-08-23T11:36:30.701Z,2.30
2022-08-23T11:39:06.836Z,2.88
2022-08-23T11:41:36.822Z,2.85
2022-08-23T11:44:24.083Z,2.80
2022-08-23T11:47:00.544Z,2.85
2022-08-23T11:49:54.606Z,2.45
2022-08-23T11:52:55.293Z,2.60
2022-08-23T11:55:43.308Z,3.13
2022-08-23T11:58:23.287Z,3.17
2022-08-23T12:01:06.187Z,3.08
2022-08-23T12:03:44.247Z,2.60
2022-08-23T12:06:30.925Z,3.00
2022-08-23T12:09:04.812Z,2.50
2022-08-23T12:12:06.642Z,2.63
2022-08-23T12:14:37.508Z,2.38
2022-08-23T12:17:06.959Z,2.53
2022-08-23T12:19:42.221Z,2.75
2022-08-23T12:22:15.539Z,2.53
2022-08-23T12:24:47.326Z,2.80
2022-08-23T12:27:29.011Z,2.97
2022-08-23T12:30:01.670Z,2.60
2022-08-23T12:32:37.634Z,2.80
2022-08-23T12:35:30.187Z,2.83
2022-08-23T12:38:08.606Z,2.70
2022-08-23T12:40:42.559Z,2.88
2022-08-23T12:43:22.596Z,2.60
2022-08-23T12:45:53.327Z,2.95
2022-08-23T12:48:24.378Z,2.75
2022-08-23T12:50:57.353Z,2.60
2022-08-23T12:53:34.801Z,2.70
2022-08-23T12:56:05.799Z,2.85
2022-08-23T12:58:41.290Z,2.50
2022-08-23T13:01:22.926Z,2.70
2022-08-23T13:04:00.583Z,2.67
2022-08-23T13:06:35.836Z,2.67
2022-08-23T13:09:18.372Z,2.55
2022-08-23T13:11:48.057Z,2.95
2022-08-23T13:23:15.157Z,2.80
2022-08-23T13:25:44.669Z,2.60
2022-08-23T13:28:25.134Z,2.47
2022-08-23T13:31:05.273Z,2.60
2022-08-23T13:33:33.352Z,2.45
2022-08-23T13:36:12.933Z,2.85
2022-08-23T13:38:42.511Z,2.70
2022-08-23T13:41:14.135Z,2.47
2022-08-23T13:43:51.070Z,2.40
2022-08-23T13:46:29.246Z,2.50
2022-08-23T13:49:06.458Z,2.92
2022-08-23T13:51:39.217Z,2.63
2022-08-23T13:54:10.188Z,2.25
2022-08-23T13:56:49.612Z,2.90
2022-08-23T13:59:31.165Z,2.40
2022-08-23T14:02:01.629Z,2.50
2022-08-23T14:04:29.817Z,2.50
2022-08-23T14:06:57.759Z,2.50
2022-08-23T14:09:28.593Z,2.35
2022-08-23T14:12:03.022Z,2.10
2022-08-23T14:14:34.049Z,2.65
2022-08-23T14:17:04.523Z,2.40
2022-08-23T14:22:21.040Z,2.88
2022-08-23T14:24:48.889Z,2.33
2022-08-23T14:27:20.129Z,2.30
2022-08-23T14:29:48.399Z,2.50
2022-08-23T14:32:16.273Z,2.47
2022-08-23T14:34:46.803Z,2.30
2022-08-23T14:38:02.886Z,2.20
2022-08-23T14:40:05.634Z,2.63
2022-08-23T14:42:37.354Z,2.25
2022-08-23T14:45:06.964Z,2.28
2022-08-23T14:47:35.936Z,2.45
2022-08-23T14:50:04.213Z,2.72
2022-08-23T14:52:34.235Z,2.30
2022-08-23T14:55:06.755Z,2.28
2022-08-23T15:00:28.453Z,2.25
2022-08-23T15:02:58.622Z,2.72
2022-08-23T15:06:02.489Z,2.25
2022-08-23T15:08:40.780Z,2.78
2022-08-23T15:14:18.069Z,2.45
2022-08-23T15:23:28.638Z,2.33
2022-08-23T15:26:45.616Z,2.30
2022-08-23T15:38:21.512Z,2.22
2022-08-23T15:40:51.432Z,2.80
2022-08-23T15:43:34.934Z,2.53
2022-08-23T15:46:19.492Z,2.50
2022-08-23T15:51:50.942Z,3.60
2022-08-23T16:03:56.144Z,2.33
2022-08-23T16:06:55.662Z,2.97
2022-08-23T16:12:45.253Z,2.88
2022-08-23T16:15:29.347Z,2.70
2022-08-23T16:18:16.390Z,2.92
2022-08-23T16:21:10.890Z,2.75
2022-08-23T16:23:57.341Z,2.47
2022-08-23T16:26:36.726Z,2.25
2022-08-23T16:38:16.361Z,2.35
2022-08-23T16:40:49.303Z,2.53
2022-08-23T16:43:17.469Z,2.35
2022-08-23T16:54:24.945Z,2.28
2022-08-23T16:57:13.385Z,2.60
2022-08-23T17:00:12.719Z,2.40
2022-08-23T17:03:47.550Z,2.67
2022-08-23T17:15:31.439Z,2.50
2022-08-23T17:18:05.172Z,1.92
2022-08-23T17:20:59.381Z,2.45
2022-08-23T17:23:42.577Z,2.30
2022-08-23T17:26:35.513Z,2.00
2022-08-23T17:29:22.881Z,4.88
2022-08-23T17:35:23.085Z,2.20
2022-08-23T17:37:52.872Z,2.15
2022-08-23T17:41:00.480Z,2.33
2022-08-23T17:43:38.522Z,2.30
2022-08-23T17:46:28.287Z,2.28
2022-08-23T17:49:23.206Z,2.30
2022-08-23T17:51:58.770Z,2.17
2022-08-23T17:57:45.261Z,2.42
2022-08-23T18:00:35.929Z,4.05
2022-08-23T18:03:19.172Z,3.92
2022-08-23T18:06:17.263Z,2.40
2022-08-23T18:20:15.379Z,2.25
2022-08-23T18:52:11.480Z,3.13
2022-08-23T18:54:39.626Z,2.83
2022-08-23T18:57:07.560Z,2.78
2022-08-23T18:59:45.467Z,3.03
2022-08-23T19:14:52.347Z,2.80
2022-08-23T19:17:38.088Z,2.97
2022-08-23T19:20:07.529Z,3.17
2022-08-23T19:22:35.384Z,2.80
2022-08-23T19:25:10.230Z,2.95
2022-08-23T19:27:38.393Z,2.70
2022-08-23T19:30:10.960Z,2.85
2022-08-23T19:32:40.579Z,2.88
2022-08-23T19:35:12.904Z,2.83
2022-08-23T19:37:41.030Z,3.20
2022-08-23T19:40:10.100Z,2.83
2022-08-23T19:42:39.387Z,2.55
2022-08-23T19:45:14.109Z,2.95
2022-08-23T19:47:44.481Z,2.65
2022-08-23T19:50:15.324Z,2.88
2022-08-23T19:52:50.727Z,2.65
2022-08-23T19:55:18.788Z,2.80
2022-08-23T19:57:50.504Z,2.50
2022-08-23T20:00:20.035Z,2.40
2022-08-23T20:02:51.474Z,2.60
2022-08-23T20:05:22.629Z,2.75
2022-08-23T20:07:50.593Z,2.57
2022-08-23T20:10:18.743Z,2.75
2022-08-23T20:12:46.701Z,2.60
2022-08-23T20:15:15.291Z,2.63
2022-08-23T20:17:47.548Z,2.50
2022-08-23T20:20:15.593Z,2.63
2022-08-23T20:23:03.127Z,2.70
2022-08-23T20:25:31.485Z,2.65
2022-08-23T20:27:59.996Z,2.70
2022-08-23T20:30:27.982Z,2.53
2022-08-23T20:32:59.558Z,3.25
2022-08-23T20:35:28.691Z,2.17
2022-08-23T20:37:59.085Z,3.22
2022-08-23T20:40:27.214Z,2.83
2022-08-23T20:42:56.524Z,3.10
2022-08-23T20:45:27.468Z,3.00
2022-08-23T20:47:55.496Z,2.85
2022-08-23T20:50:25.327Z,2.80
2022-08-23T20:52:54.862Z,3.25
2022-08-23T20:55:24.091Z,2.80
2022-08-23T20:57:52.139Z,3.13
2022-08-23T21:00:20.327Z,2.95
2022-08-23T21:02:53.343Z,2.50
2022-08-23T21:05:24.284Z,2.90
2022-08-23T21:07:53.883Z,2.88
2022-08-23T21:10:26.726Z,2.78
2022-08-23T21:13:04.075Z,2.90
2022-08-23T21:15:41.297Z,3.00
2022-08-23T21:18:09.276Z,3.10
2022-08-23T21:20:37.482Z,3.10
2022-08-23T21:23:08.135Z,3.53
2022-08-23T21:25:39.580Z,3.40
2022-08-23T21:28:07.810Z,3.83
2022-08-23T21:30:40.315Z,3.15
2022-08-23T21:33:08.698Z,3.00
2022-08-23T21:35:38.595Z,3.00
2022-08-23T21:38:09.676Z,2.95
2022-08-23T21:40:38.172Z,3.20
2022-08-23T21:43:11.458Z,3.40
2022-08-23T21:45:41.729Z,2.80
2022-08-23T21:48:13.133Z,3.20
2022-08-23T21:50:48.564Z,3.35
2022-08-23T21:53:18.335Z,3.80
2022-08-23T21:55:46.466Z,3.30
2022-08-23T21:58:17.231Z,2.90
2022-08-23T22:00:48.028Z,3.00
2022-08-23T22:03:16.341Z,3.50
2022-08-23T22:05:46.010Z,3.55
2022-08-23T22:08:17.027Z,2.83
2022-08-23T22:10:57.928Z,2.80
2022-08-23T22:13:30.036Z,3.03
2022-08-23T22:15:59.679Z,3.13
2022-08-23T22:21:15.518Z,3.15
2022-08-23T22:23:50.389Z,3.05
2022-08-23T22:26:25.148Z,3.38
2022-08-23T22:28:58.468Z,3.20
2022-08-23T22:31:31.254Z,3.22
2022-08-23T22:34:04.018Z,3.10
2022-08-23T22:36:42.144Z,3.25
2022-08-23T22:39:19.041Z,3.22
2022-08-23T22:42:18.501Z,3.35
2022-08-23T22:44:56.173Z,3.55
2022-08-23T22:47:24.576Z,3.20
2022-08-23T22:49:52.982Z,3.17
2022-08-23T22:52:24.743Z,3.40
2022-08-23T22:54:53.100Z,3.55
2022-08-23T22:57:26.878Z,3.50
2022-08-23T22:59:55.197Z,4.03
2022-08-23T23:02:29.699Z,3.25
2022-08-23T23:05:00.961Z,3.50
2022-08-23T23:07:48.282Z,3.78
2022-08-23T23:10:22.182Z,3.90
2022-08-23T23:13:00.469Z,3.67
2022-08-23T23:15:32.903Z,3.40
2022-08-23T23:18:10.001Z,4.00
2022-08-23T23:20:43.197Z,4.10
2022-08-23T23:23:16.970Z,3.60
2022-08-23T23:25:50.900Z,3.92
2022-08-23T23:28:23.615Z,3.88
2022-08-23T23:33:42.341Z,3.80
2022-08-23T23:36:25.948Z,3.88
2022-08-23T23:38:57.799Z,4.10
2022-08-23T23:41:42.909Z,3.53
2022-08-23T23:44:22.548Z,4.20
2022-08-23T23:46:59.702Z,3.60
2022-08-23T23:49:32.362Z,3.50
2022-08-23T23:52:03.329Z,3.70
2022-08-23T23:54:33.894Z,4.22
2022-08-23T23:57:05.668Z,3.80
2022-08-23T23:59:45.548Z,3.72
